Time;durP1;ratioP1;P1;durP2;ratioP2;P2;SDS_P1;SDS_P2;PMS_P1;PMS_P2;Temp;Humidity;BMP_temperature;BMP_pressure;BME280_temperature;BME280_humidity;BME280_pressure;Samples;Min_cycle;Max_cycle;Signal;HPM_P1;HPM_P2
2021/12/09 00:00:11;;;;;;;16.63;8.82;;;;;;;;;;5085716;28;20068;-59
2021/12/09 00:02:37;;;;;;;15.13;8.38;;;;;;;;;;5086731;28;20040;-60
2021/12/09 00:05:05;;;;;;;13.65;8.35;;;;;;;;;;5084974;28;20049;-59
2021/12/09 00:07:31;;;;;;;14.65;7.90;;;;;;;;;;5085539;28;20049;-60
2021/12/09 00:09:57;;;;;;;14.05;9.50;;;;;;;;;;5085742;28;20056;-59
2021/12/09 00:12:24;;;;;;;16.58;8.73;;;;;;;;;;5085416;28;20045;-59
2021/12/09 00:14:50;;;;;;;13.77;8.13;;;;;;;;;;5085387;28;20412;-60
2021/12/09 00:17:16;;;;;;;14.13;8.27;;;;;;;;;;5090969;28;20044;-60
2021/12/09 00:19:43;;;;;;;13.68;8.60;;;;;;;;;;5103154;28;20036;-60
2021/12/09 00:22:12;;;;;;;18.40;8.95;;;;;;;;;;5105189;28;20047;-60
2021/12/09 00:24:38;;;;;;;24.75;8.73;;;;;;;;;;5105622;28;20036;-60
2021/12/09 00:27:05;;;;;;;13.55;8.00;;;;;;;;;;5102094;28;20143;-58
2021/12/09 00:29:31;;;;;;;18.58;9.43;;;;;;;;;;5105607;28;20097;-60
2021/12/09 00:31:58;;;;;;;20.75;9.68;;;;;;;;;;5086784;28;20050;-59
2021/12/09 00:34:30;;;;;;;19.25;9.00;;;;;;;;;;5104854;28;20127;-59
2021/12/09 00:37:14;;;;;;;20.35;10.15;;;;;;;;;;5104450;28;20066;-61
2021/12/09 00:39:41;;;;;;;18.90;9.32;;;;;;;;;;5086826;28;20043;-60
2021/12/09 00:42:07;;;;;;;23.58;10.65;;;;;;;;;;5104728;28;20090;-60
2021/12/09 00:44:33;;;;;;;15.18;10.25;;;;;;;;;;5105534;28;20052;-60
2021/12/09 00:47:00;;;;;;;21.98;10.65;;;;;;;;;;5085158;28;20144;-60
2021/12/09 00:49:30;;;;;;;20.92;10.23;;;;;;;;;;5084761;28;20082;-59
2021/12/09 00:51:56;;;;;;;18.75;10.38;;;;;;;;;;5083117;28;20102;-60
2021/12/09 00:54:22;;;;;;;24.50;11.00;;;;;;;;;;5084302;28;20131;-61
2021/12/09 00:56:48;;;;;;;20.13;10.77;;;;;;;;;;5085729;28;20047;-60
2021/12/09 00:59:14;;;;;;;31.27;12.77;;;;;;;;;;5101773;28;20487;-60
2021/12/09 01:01:40;;;;;;;22.00;12.10;;;;;;;;;;5084628;28;20044;-60
2021/12/09 01:04:06;;;;;;;23.30;12.60;;;;;;;;;;5066532;28;20500;-60
2021/12/09 01:06:32;;;;;;;24.38;12.43;;;;;;;;;;5083798;28;20127;-60
2021/12/09 01:08:58;;;;;;;22.85;11.85;;;;;;;;;;5098461;28;20044;-60
2021/12/09 01:11:25;;;;;;;23.67;11.90;;;;;;;;;;5104126;28;20107;-61
2021/12/09 01:13:51;;;;;;;21.90;12.95;;;;;;;;;;5077222;28;20109;-59
2021/12/09 01:16:17;;;;;;;24.13;12.98;;;;;;;;;;5084183;28;20049;-59
2021/12/09 01:18:43;;;;;;;24.48;12.50;;;;;;;;;;5094459;28;20047;-59
2021/12/09 01:21:10;;;;;;;28.83;14.05;;;;;;;;;;5103727;28;20052;-59
2021/12/09 01:23:36;;;;;;;26.30;13.20;;;;;;;;;;5104566;28;20119;-59
2021/12/09 01:26:05;;;;;;;22.48;13.65;;;;;;;;;;5104056;28;20162;-60
2021/12/09 01:28:40;;;;;;;32.80;13.75;;;;;;;;;;5103555;28;20047;-59
2021/12/09 01:31:07;;;;;;;23.90;14.25;;;;;;;;;;5104665;28;20044;-60
2021/12/09 01:33:35;;;;;;;28.75;13.40;;;;;;;;;;5095433;28;20045;-60
2021/12/09 01:36:01;;;;;;;25.50;14.10;;;;;;;;;;5103642;28;20060;-59
2021/12/09 01:38:31;;;;;;;31.70;15.55;;;;;;;;;;5109913;28;20047;-59
2021/12/09 01:40:57;;;;;;;24.65;13.95;;;;;;;;;;5119283;28;20040;-58
2021/12/09 01:43:23;;;;;;;27.10;15.82;;;;;;;;;;5084184;28;20045;-61
2021/12/09 01:45:49;;;;;;;28.33;14.95;;;;;;;;;;5084512;28;20399;-58
2021/12/09 01:48:16;;;;;;;26.58;14.98;;;;;;;;;;5083924;28;20113;-60
2021/12/09 01:50:42;;;;;;;25.13;15.70;;;;;;;;;;5103045;28;20036;-59
2021/12/09 01:53:08;;;;;;;25.90;15.50;;;;;;;;;;5104341;28;20451;-60
2021/12/09 01:55:35;;;;;;;28.50;16.45;;;;;;;;;;5103984;28;20108;-60
2021/12/09 01:58:02;;;;;;;29.50;15.87;;;;;;;;;;5092706;28;20071;-60
2021/12/09 02:00:30;;;;;;;24.60;14.77;;;;;;;;;;5067724;28;20044;-60
2021/12/09 02:02:56;;;;;;;29.80;15.88;;;;;;;;;;5083794;28;20082;-60
2021/12/09 02:05:23;;;;;;;25.80;15.70;;;;;;;;;;5084762;28;20044;-60
2021/12/09 02:07:49;;;;;;;28.65;16.13;;;;;;;;;;5107584;28;20058;-60
2021/12/09 02:10:17;;;;;;;32.90;15.60;;;;;;;;;;5089859;28;20048;-60
2021/12/09 02:12:43;;;;;;;34.88;15.32;;;;;;;;;;5108200;28;20099;-59
2021/12/09 02:15:10;;;;;;;26.30;15.30;;;;;;;;;;5106629;28;20039;-60
2021/12/09 02:17:36;;;;;;;27.42;15.70;;;;;;;;;;5107951;28;20105;-59
2021/12/09 02:20:04;;;;;;;28.73;15.65;;;;;;;;;;5107095;28;20048;-59
2021/12/09 02:22:31;;;;;;;27.30;15.40;;;;;;;;;;5107942;28;20124;-58
2021/12/09 02:24:57;;;;;;;27.90;17.10;;;;;;;;;;5089368;28;20044;-58
2021/12/09 02:27:24;;;;;;;28.60;15.43;;;;;;;;;;5089419;28;20047;-59
2021/12/09 02:29:51;;;;;;;28.70;16.80;;;;;;;;;;5100737;28;20040;-59
2021/12/09 02:32:18;;;;;;;25.52;16.23;;;;;;;;;;5088795;28;20055;-59
2021/12/09 02:34:44;;;;;;;30.88;17.35;;;;;;;;;;5087173;28;20056;-59
2021/12/09 02:37:13;;;;;;;31.83;16.95;;;;;;;;;;5068308;28;20116;-58
2021/12/09 02:39:39;;;;;;;31.73;17.13;;;;;;;;;;5093057;28;20036;-59
2021/12/09 02:42:05;;;;;;;27.95;16.90;;;;;;;;;;5107424;28;20055;-60
2021/12/09 02:44:31;;;;;;;27.45;16.73;;;;;;;;;;5106063;28;20047;-61
2021/12/09 02:46:57;;;;;;;29.10;17.05;;;;;;;;;;5107579;28;20123;-61
2021/12/09 02:49:28;;;;;;;31.33;15.95;;;;;;;;;;5103481;28;20119;-61
2021/12/09 02:51:54;;;;;;;30.00;15.55;;;;;;;;;;5086459;28;20079;-60
2021/12/09 02:54:21;;;;;;;31.55;16.67;;;;;;;;;;5086529;28;20117;-59
2021/12/09 02:56:49;;;;;;;29.90;16.17;;;;;;;;;;5086244;28;20048;-60
2021/12/09 02:59:15;;;;;;;34.25;16.15;;;;;;;;;;5088627;28;20056;-60
2021/12/09 03:01:50;;;;;;;30.08;16.83;;;;;;;;;;5089028;28;20062;-60
2021/12/09 03:04:16;;;;;;;35.42;17.67;;;;;;;;;;5107096;28;20044;-60
2021/12/09 03:06:43;;;;;;;31.65;17.92;;;;;;;;;;5106201;28;20044;-60
2021/12/09 03:09:14;;;;;;;30.90;17.00;;;;;;;;;;5103789;28;20087;-60
2021/12/09 03:11:40;;;;;;;28.67;17.27;;;;;;;;;;5068560;28;20047;-59
2021/12/09 03:14:08;;;;;;;31.55;19.15;;;;;;;;;;5087791;28;20470;-60
2021/12/09 03:16:34;;;;;;;28.90;17.20;;;;;;;;;;5086424;28;20098;-59
2021/12/09 03:19:06;;;;;;;30.92;18.10;;;;;;;;;;5086657;28;20052;-59
2021/12/09 03:21:34;;;;;;;35.53;18.38;;;;;;;;;;5105510;28;20044;-60
2021/12/09 03:24:01;;;;;;;32.20;16.73;;;;;;;;;;5106682;28;20057;-60
2021/12/09 03:26:33;;;;;;;26.52;17.75;;;;;;;;;;5106388;28;20167;-60
2021/12/09 03:29:01;;;;;;;33.15;18.92;;;;;;;;;;5103236;28;20072;-60
2021/12/09 03:31:28;;;;;;;37.28;18.08;;;;;;;;;;5068981;28;20380;-62
2021/12/09 03:33:54;;;;;;;32.47;18.88;;;;;;;;;;5099810;28;20419;-61
2021/12/09 03:36:20;;;;;;;33.10;17.88;;;;;;;;;;5085528;28;20059;-60
2021/12/09 03:38:46;;;;;;;32.63;17.80;;;;;;;;;;5086772;28;20087;-60
2021/12/09 03:41:13;;;;;;;30.25;19.92;;;;;;;;;;5086131;28;20123;-60
2021/12/09 03:43:39;;;;;;;31.48;17.90;;;;;;;;;;5086169;28;20563;-59
2021/12/09 03:46:05;;;;;;;33.38;18.65;;;;;;;;;;5105894;28;20115;-59
2021/12/09 03:48:31;;;;;;;37.08;20.38;;;;;;;;;;5105957;28;20056;-60
2021/12/09 03:50:58;;;;;;;32.83;20.48;;;;;;;;;;5105871;28;20127;-60
2021/12/09 03:53:25;;;;;;;38.97;20.40;;;;;;;;;;5091855;28;20055;-59
2021/12/09 03:55:51;;;;;;;29.92;19.67;;;;;;;;;;5102169;28;20451;-59
2021/12/09 03:58:17;;;;;;;40.60;22.02;;;;;;;;;;5106020;28;20040;-60
2021/12/09 04:00:44;;;;;;;29.27;18.95;;;;;;;;;;5105798;28;20054;-59
2021/12/09 04:03:10;;;;;;;30.80;18.92;;;;;;;;;;5087497;28;20054;-59
2021/12/09 04:05:37;;;;;;;37.40;19.05;;;;;;;;;;5105179;28;20050;-59
2021/12/09 04:08:03;;;;;;;32.55;18.90;;;;;;;;;;5105771;28;20047;-60
2021/12/09 04:10:31;;;;;;;29.80;20.40;;;;;;;;;;5087130;28;20040;-60
2021/12/09 04:12:57;;;;;;;36.03;20.23;;;;;;;;;;5105867;28;20056;-60
2021/12/09 04:15:23;;;;;;;34.35;18.95;;;;;;;;;;5104591;28;20052;-60
2021/12/09 04:17:50;;;;;;;31.00;19.60;;;;;;;;;;5105572;28;20040;-59
2021/12/09 04:20:16;;;;;;;34.78;20.73;;;;;;;;;;5105273;28;20081;-59
2021/12/09 04:22:48;;;;;;;36.42;21.85;;;;;;;;;;5087333;28;20055;-60
2021/12/09 04:25:15;;;;;;;39.65;21.42;;;;;;;;;;5104678;28;20048;-59
2021/12/09 04:27:41;;;;;;;36.95;22.15;;;;;;;;;;5105308;28;20040;-59
2021/12/09 04:30:07;;;;;;;35.03;20.63;;;;;;;;;;5104632;28;20048;-60
2021/12/09 04:32:33;;;;;;;37.50;21.45;;;;;;;;;;5087133;28;20047;-60
2021/12/09 04:34:59;;;;;;;36.60;22.00;;;;;;;;;;5103112;28;20055;-59
2021/12/09 04:37:25;;;;;;;34.75;22.38;;;;;;;;;;5104839;28;20056;-59
2021/12/09 04:39:52;;;;;;;39.95;22.25;;;;;;;;;;5105393;28;20058;-60
2021/12/09 04:42:18;;;;;;;44.83;22.73;;;;;;;;;;5105144;28;20048;-59
2021/12/09 04:44:44;;;;;;;44.03;20.27;;;;;;;;;;5065711;28;20138;-59
2021/12/09 04:47:10;;;;;;;48.30;23.38;;;;;;;;;;5104895;28;20036;-59
2021/12/09 04:49:37;;;;;;;43.95;23.65;;;;;;;;;;5104945;28;20044;-60
2021/12/09 04:52:04;;;;;;;39.33;23.77;;;;;;;;;;5104547;28;20051;-60
2021/12/09 04:54:30;;;;;;;38.93;22.60;;;;;;;;;;5104594;28;20411;-59
2021/12/09 04:56:56;;;;;;;42.15;22.13;;;;;;;;;;5104803;28;20115;-60
2021/12/09 04:59:22;;;;;;;39.72;23.45;;;;;;;;;;5105019;28;20052;-59
2021/12/09 05:01:50;;;;;;;40.72;23.08;;;;;;;;;;5104661;28;20032;-59
2021/12/09 05:04:17;;;;;;;46.20;25.73;;;;;;;;;;5104379;28;20048;-60
2021/12/09 05:06:43;;;;;;;47.40;25.20;;;;;;;;;;5104515;28;20236;-60
2021/12/09 05:09:16;;;;;;;47.95;23.65;;;;;;;;;;5104594;28;20111;-59
2021/12/09 05:14:08;;;;;;;46.92;24.20;;;;;;;;;;5097220;28;20056;-59
2021/12/09 05:16:34;;;;;;;40.75;21.85;;;;;;;;;;5099660;28;20039;-59
2021/12/09 05:19:01;;;;;;;50.72;24.33;;;;;;;;;;5104317;28;20043;-61
2021/12/09 05:21:29;;;;;;;52.70;24.38;;;;;;;;;;5101819;28;20078;-60
2021/12/09 05:23:55;;;;;;;48.08;24.95;;;;;;;;;;5101205;28;20127;-59
2021/12/09 05:26:26;;;;;;;47.33;20.85;;;;;;;;;;5082182;28;20048;-60
2021/12/09 05:28:55;;;;;;;47.08;23.98;;;;;;;;;;5072337;28;20181;-60
2021/12/09 05:34:07;;;;;;;54.63;25.27;;;;;;;;;;5104223;28;20438;-60
2021/12/09 05:36:33;;;;;;;55.03;26.52;;;;;;;;;;5103682;28;20074;-59
2021/12/09 05:38:59;;;;;;;49.35;25.65;;;;;;;;;;5079795;28;20047;-60
2021/12/09 05:41:25;;;;;;;51.53;26.15;;;;;;;;;;5086874;28;20495;-60
2021/12/09 05:43:51;;;;;;;44.65;24.38;;;;;;;;;;5106228;28;20117;-60
2021/12/09 05:46:18;;;;;;;60.60;27.55;;;;;;;;;;5088993;28;20055;-60
2021/12/09 05:48:44;;;;;;;53.50;26.75;;;;;;;;;;5083948;28;20076;-60
2021/12/09 05:51:11;;;;;;;56.88;27.73;;;;;;;;;;5100403;28;20071;-60
2021/12/09 05:53:37;;;;;;;51.00;29.30;;;;;;;;;;5098492;28;20048;-60
2021/12/09 05:56:04;;;;;;;55.17;28.92;;;;;;;;;;5086686;28;20072;-59
2021/12/09 05:58:30;;;;;;;56.22;29.30;;;;;;;;;;5088074;28;20051;-59
2021/12/09 06:00:56;;;;;;;49.92;28.48;;;;;;;;;;5096063;28;20047;-58
2021/12/09 06:03:22;;;;;;;58.50;29.88;;;;;;;;;;5107635;28;20075;-60
2021/12/09 06:05:50;;;;;;;58.40;29.70;;;;;;;;;;5089412;28;20085;-59
2021/12/09 06:08:16;;;;;;;55.28;28.88;;;;;;;;;;5108089;28;20621;-62
2021/12/09 06:10:43;;;;;;;61.28;31.05;;;;;;;;;;5101843;28;20431;-59
2021/12/09 06:13:09;;;;;;;59.92;30.27;;;;;;;;;;5089188;28;20233;-60
2021/12/09 06:15:35;;;;;;;65.60;31.42;;;;;;;;;;5088963;28;20123;-61
2021/12/09 06:18:01;;;;;;;60.83;31.67;;;;;;;;;;5108026;28;20127;-59
2021/12/09 06:20:28;;;;;;;60.33;31.38;;;;;;;;;;5084693;28;20048;-60
2021/12/09 06:22:54;;;;;;;63.27;33.80;;;;;;;;;;5087613;28;20100;-60
2021/12/09 06:25:21;;;;;;;60.13;29.58;;;;;;;;;;5086552;28;20044;-60
2021/12/09 06:27:48;;;;;;;62.75;31.50;;;;;;;;;;5088706;28;20341;-60
2021/12/09 06:30:15;;;;;;;66.85;33.22;;;;;;;;;;5107716;28;20044;-62
2021/12/09 06:32:42;;;;;;;51.47;29.75;;;;;;;;;;5089351;28;20055;-61
2021/12/09 06:35:08;;;;;;;58.10;31.92;;;;;;;;;;5107030;28;20040;-60
2021/12/09 06:37:38;;;;;;;58.50;30.25;;;;;;;;;;5101944;28;20056;-60
2021/12/09 06:40:05;;;;;;;60.08;30.58;;;;;;;;;;5087244;28;20044;-60
2021/12/09 06:42:31;;;;;;;56.88;29.55;;;;;;;;;;5087034;28;20072;-60
2021/12/09 06:44:57;;;;;;;59.78;33.03;;;;;;;;;;5086962;28;20104;-59
2021/12/09 06:47:23;;;;;;;61.28;31.10;;;;;;;;;;5102305;28;20063;-59
2021/12/09 06:49:50;;;;;;;58.08;30.85;;;;;;;;;;5087150;28;20076;-59
2021/12/09 06:52:16;;;;;;;54.00;29.75;;;;;;;;;;5093583;28;20044;-60
2021/12/09 06:54:43;;;;;;;60.35;31.63;;;;;;;;;;5107241;28;20053;-60
2021/12/09 06:57:09;;;;;;;60.95;30.05;;;;;;;;;;5105153;28;20040;-60
2021/12/09 06:59:35;;;;;;;60.30;29.90;;;;;;;;;;5094427;28;20095;-59
2021/12/09 07:02:02;;;;;;;63.28;31.48;;;;;;;;;;5089406;28;20067;-60
2021/12/09 07:04:28;;;;;;;57.08;28.88;;;;;;;;;;5097913;28;20552;-59
2021/12/09 07:06:54;;;;;;;54.58;27.88;;;;;;;;;;5105548;28;20044;-60
2021/12/09 07:09:22;;;;;;;63.92;30.35;;;;;;;;;;5098949;28;20051;-60
2021/12/09 07:11:51;;;;;;;58.47;29.52;;;;;;;;;;5089707;28;20052;-60
2021/12/09 07:14:18;;;;;;;61.05;31.48;;;;;;;;;;5106376;28;20126;-60
2021/12/09 07:16:44;;;;;;;59.50;32.15;;;;;;;;;;5099238;28;20040;-60
2021/12/09 07:19:10;;;;;;;61.60;30.55;;;;;;;;;;5071992;28;20047;-59
2021/12/09 07:21:36;;;;;;;55.72;29.10;;;;;;;;;;5102533;28;20039;-60
2021/12/09 07:24:03;;;;;;;54.10;29.90;;;;;;;;;;5086497;28;20562;-60
2021/12/09 07:26:30;;;;;;;54.83;28.15;;;;;;;;;;5101223;28;20078;-60
2021/12/09 07:28:56;;;;;;;60.27;29.77;;;;;;;;;;5104642;28;20067;-59
2021/12/09 07:31:24;;;;;;;64.75;31.02;;;;;;;;;;5094336;28;20492;-60
2021/12/09 07:33:50;;;;;;;70.30;31.10;;;;;;;;;;5086453;28;20094;-60
2021/12/09 07:36:17;;;;;;;64.00;30.65;;;;;;;;;;5088895;28;20493;-60
2021/12/09 07:38:45;;;;;;;66.07;30.38;;;;;;;;;;5105289;28;20309;-60
2021/12/09 07:41:12;;;;;;;63.83;31.08;;;;;;;;;;5106235;28;20055;-59
2021/12/09 07:43:38;;;;;;;64.28;32.03;;;;;;;;;;5088838;28;20080;-60
2021/12/09 07:46:04;;;;;;;58.95;32.13;;;;;;;;;;5102524;28;20075;-60
2021/12/09 07:48:30;;;;;;;59.40;31.65;;;;;;;;;;5105217;28;20099;-60
2021/12/09 07:50:56;;;;;;;59.17;29.60;;;;;;;;;;5105228;28;20066;-60
2021/12/09 07:53:23;;;;;;;59.35;30.50;;;;;;;;;;5106248;28;20517;-59
2021/12/09 07:55:50;;;;;;;59.65;30.17;;;;;;;;;;5076125;28;20049;-60
2021/12/09 07:58:16;;;;;;;62.85;30.40;;;;;;;;;;5091132;28;20047;-59
2021/12/09 08:00:42;;;;;;;62.03;30.05;;;;;;;;;;5101122;28;20096;-59
2021/12/09 08:03:09;;;;;;;60.10;28.73;;;;;;;;;;5103775;28;20051;-59
2021/12/09 08:05:36;;;;;;;66.90;29.90;;;;;;;;;;5087517;28;20044;-59
2021/12/09 08:08:03;;;;;;;61.75;31.33;;;;;;;;;;5103841;28;20078;-60
2021/12/09 08:10:29;;;;;;;57.72;30.83;;;;;;;;;;5105802;28;20044;-61
2021/12/09 08:12:58;;;;;;;63.72;30.45;;;;;;;;;;5088608;28;20045;-60
2021/12/09 08:15:24;;;;;;;54.90;29.05;;;;;;;;;;5085451;28;20087;-59
2021/12/09 08:18:02;;;;;;;62.30;30.55;;;;;;;;;;5085348;28;20067;-59
2021/12/09 08:20:29;;;;;;;55.20;29.67;;;;;;;;;;5084249;28;20040;-59
2021/12/09 08:22:55;;;;;;;67.05;30.25;;;;;;;;;;5085415;28;20055;-59
2021/12/09 08:25:22;;;;;;;69.63;29.27;;;;;;;;;;5085374;28;20047;-59
2021/12/09 08:27:49;;;;;;;74.03;30.05;;;;;;;;;;5085545;28;20040;-59
2021/12/09 08:30:17;;;;;;;58.00;30.42;;;;;;;;;;5085465;28;20052;-60
2021/12/09 08:32:43;;;;;;;71.65;30.02;;;;;;;;;;5084970;28;20041;-60
2021/12/09 08:35:10;;;;;;;57.25;30.58;;;;;;;;;;5089995;28;20109;-59
2021/12/09 08:37:36;;;;;;;54.53;27.80;;;;;;;;;;5104357;28;20076;-59
2021/12/09 08:40:04;;;;;;;58.80;29.85;;;;;;;;;;5104742;28;20051;-60
2021/12/09 08:42:31;;;;;;;53.13;28.63;;;;;;;;;;5083705;28;20048;-60
2021/12/09 08:44:57;;;;;;;52.30;27.02;;;;;;;;;;5092498;28;20036;-59
2021/12/09 08:47:23;;;;;;;56.55;26.55;;;;;;;;;;5086034;28;20051;-60
2021/12/09 08:49:49;;;;;;;52.45;25.95;;;;;;;;;;5110062;28;20054;-60
2021/12/09 08:52:15;;;;;;;53.67;24.70;;;;;;;;;;5104105;28;20044;-59
2021/12/09 08:54:42;;;;;;;47.50;25.25;;;;;;;;;;5100784;28;20040;-60
2021/12/09 08:57:10;;;;;;;48.97;21.98;;;;;;;;;;5102768;28;20043;-61
2021/12/09 08:59:36;;;;;;;47.00;21.48;;;;;;;;;;5091254;28;20402;-60
2021/12/09 09:02:02;;;;;;;34.08;19.73;;;;;;;;;;5104740;28;20097;-60
2021/12/09 09:04:28;;;;;;;45.50;19.33;;;;;;;;;;5104942;28;20052;-60
2021/12/09 09:06:56;;;;;;;41.47;19.73;;;;;;;;;;5103853;28;20048;-60
2021/12/09 09:09:26;;;;;;;38.38;19.45;;;;;;;;;;5100521;28;20048;-60
2021/12/09 09:11:52;;;;;;;34.33;18.05;;;;;;;;;;5104751;28;20040;-59
2021/12/09 09:14:19;;;;;;;36.28;17.27;;;;;;;;;;5096925;28;20079;-60
2021/12/09 09:16:45;;;;;;;36.30;18.48;;;;;;;;;;5103721;28;20079;-60
2021/12/09 09:19:13;;;;;;;31.38;17.00;;;;;;;;;;5102491;28;20162;-60
2021/12/09 09:21:39;;;;;;;34.95;17.50;;;;;;;;;;5102966;28;20044;-60
2021/12/09 09:24:05;;;;;;;37.40;16.90;;;;;;;;;;5104444;28;20044;-60
2021/12/09 09:26:32;;;;;;;28.58;15.10;;;;;;;;;;5087800;28;20389;-60
2021/12/09 09:28:59;;;;;;;30.95;15.23;;;;;;;;;;5098000;28;20048;-60
2021/12/09 09:31:29;;;;;;;26.15;15.40;;;;;;;;;;5103456;28;20032;-59
2021/12/09 09:33:55;;;;;;;27.05;14.18;;;;;;;;;;5104063;28;20086;-60
2021/12/09 09:36:21;;;;;;;32.88;14.60;;;;;;;;;;5101437;28;20492;-59
2021/12/09 09:38:47;;;;;;;24.38;14.23;;;;;;;;;;5104070;28;20099;-59
2021/12/09 09:41:16;;;;;;;27.80;14.20;;;;;;;;;;5103644;28;20039;-60
2021/12/09 09:46:15;;;;;;;29.25;12.95;;;;;;;;;;5102769;28;20044;-59
2021/12/09 09:48:42;;;;;;;20.80;11.98;;;;;;;;;;5103883;28;20083;-59
2021/12/09 09:51:09;;;;;;;25.85;11.10;;;;;;;;;;5102800;28;20036;-59
2021/12/09 09:53:37;;;;;;;26.55;11.45;;;;;;;;;;5103970;28;20047;-59
2021/12/09 09:56:08;;;;;;;22.65;9.95;;;;;;;;;;5102523;28;20040;-59
2021/12/09 09:58:34;;;;;;;26.17;10.85;;;;;;;;;;5103388;28;20079;-60
2021/12/09 10:01:01;;;;;;;26.73;10.90;;;;;;;;;;5084931;28;20104;-60
2021/12/09 10:03:30;;;;;;;20.95;10.52;;;;;;;;;;5084615;28;20294;-60
2021/12/09 10:05:58;;;;;;;17.98;9.52;;;;;;;;;;5102743;28;20072;-60
2021/12/09 10:08:24;;;;;;;21.15;9.95;;;;;;;;;;5103788;28;20055;-60
2021/12/09 10:10:51;;;;;;;24.10;10.48;;;;;;;;;;5103375;28;20044;-60
2021/12/09 10:13:18;;;;;;;20.48;10.02;;;;;;;;;;5109306;28;20043;-60
2021/12/09 10:15:51;;;;;;;22.25;9.50;;;;;;;;;;5101901;28;20048;-60
2021/12/09 10:18:50;;;;;;;19.33;9.75;;;;;;;;;;5085025;28;20096;-59
2021/12/09 10:21:21;;;;;;;18.35;9.32;;;;;;;;;;5007680;28;20050;-59
2021/12/09 10:23:50;;;;;;;18.42;9.32;;;;;;;;;;5000948;28;20109;-59
2021/12/09 10:26:16;;;;;;;19.27;9.55;;;;;;;;;;5002186;28;20046;-59
2021/12/09 10:28:48;;;;;;;22.77;8.57;;;;;;;;;;5004642;28;20143;-60
2021/12/09 10:31:16;;;;;;;17.88;9.23;;;;;;;;;;4989254;28;20062;-59
2021/12/09 10:33:59;;;;;;;24.27;8.90;;;;;;;;;;5005233;28;20050;-61
2021/12/09 10:36:44;;;;;;;16.05;7.75;;;;;;;;;;4988263;28;20108;-59
2021/12/09 10:39:18;;;;;;;15.55;8.32;;;;;;;;;;5005091;28;20054;-59
2021/12/09 10:41:44;;;;;;;15.40;9.13;;;;;;;;;;5005113;28;20520;-59
2021/12/09 10:44:11;;;;;;;22.02;8.10;;;;;;;;;;5005532;28;20054;-60
2021/12/09 10:46:53;;;;;;;22.17;8.05;;;;;;;;;;5005056;28;20068;-60
2021/12/09 10:49:21;;;;;;;16.77;8.15;;;;;;;;;;4988544;28;20050;-60
2021/12/09 10:51:56;;;;;;;15.30;7.68;;;;;;;;;;5004250;28;20070;-60
2021/12/09 10:54:32;;;;;;;14.80;8.73;;;;;;;;;;5005145;28;20054;-61
2021/12/09 10:57:18;;;;;;;20.48;8.20;;;;;;;;;;5050264;28;20065;-60
2021/12/09 10:59:44;;;;;;;20.35;8.20;;;;;;;;;;5102594;28;20044;-60
2021/12/09 11:02:11;;;;;;;18.30;9.43;;;;;;;;;;5088958;28;20048;-60
2021/12/09 11:04:37;;;;;;;19.98;8.60;;;;;;;;;;5107091;28;20059;-60
2021/12/09 11:07:29;;;;;;;19.50;9.55;;;;;;;;;;5100100;28;20093;-60
2021/12/09 11:10:15;;;;;;;19.02;10.25;;;;;;;;;;5092677;28;20059;-60
2021/12/09 11:12:56;;;;;;;24.17;10.10;;;;;;;;;;5074711;28;20052;-60
2021/12/09 11:15:42;;;;;;;23.27;8.98;;;;;;;;;;5086584;28;20049;-60
2021/12/09 11:18:26;;;;;;;23.83;9.80;;;;;;;;;;5102199;28;20411;-60
2021/12/09 11:20:52;;;;;;;16.42;9.38;;;;;;;;;;5091872;28;20059;-60
2021/12/09 11:23:25;;;;;;;19.02;8.70;;;;;;;;;;5101271;28;20076;-61
2021/12/09 11:25:52;;;;;;;19.27;10.48;;;;;;;;;;5086687;28;20128;-61
2021/12/09 11:28:18;;;;;;;18.48;10.45;;;;;;;;;;5072826;28;20055;-61
2021/12/09 11:31:06;;;;;;;22.85;10.38;;;;;;;;;;5106438;28;20506;-61
2021/12/09 11:33:35;;;;;;;21.70;10.57;;;;;;;;;;5086155;28;20049;-61
2021/12/09 11:36:02;;;;;;;23.13;12.02;;;;;;;;;;5085441;28;20097;-61
2021/12/09 11:38:56;;;;;;;16.85;8.75;;;;;;;;;;5090212;28;20052;-61
2021/12/09 11:41:17;;;;;;;;;;;;;;;;;;5103967;28;20439;-61
2021/12/09 11:43:43;;;;;;;30.40;11.40;;;;;;;;;;5103748;28;19927;-61
2021/12/09 11:46:09;;;;;;;27.67;12.50;;;;;;;;;;5082733;28;20090;-61
2021/12/09 11:48:37;;;;;;;22.90;11.23;;;;;;;;;;5104725;28;20087;-61
2021/12/09 11:51:03;;;;;;;28.17;11.45;;;;;;;;;;5104756;28;20044;-60
2021/12/09 11:53:33;;;;;;;17.55;10.60;;;;;;;;;;5096274;28;20069;-61
2021/12/09 11:56:09;;;;;;;26.13;12.60;;;;;;;;;;5105786;28;20057;-60
2021/12/09 11:58:49;;;;;;;24.55;11.27;;;;;;;;;;5087145;28;20055;-60
2021/12/09 12:15:17;;;;;;;35.83;15.00;;;;;;;;;;5099299;28;20092;-60
2021/12/09 12:18:12;;;;;;;35.53;15.18;;;;;;;;;;5085394;28;20080;-61
2021/12/09 12:20:46;;;;;;;29.40;13.95;;;;;;;;;;5087220;28;20048;-61
2021/12/09 12:23:31;;;;;;;26.35;13.05;;;;;;;;;;5067004;28;20072;-60
2021/12/09 12:26:33;;;;;;;27.35;13.73;;;;;;;;;;5085191;28;20049;-60
2021/12/09 12:32:01;;;;;;;33.17;14.45;;;;;;;;;;5092835;28;20045;-61
2021/12/09 12:40:15;;;;;;;29.73;13.85;;;;;;;;;;5101585;28;20107;-61
2021/12/09 12:45:36;;;;;;;29.38;13.75;;;;;;;;;;5105260;28;20052;-61
2021/12/09 12:48:29;;;;;;;23.75;11.98;;;;;;;;;;5105354;28;20046;-61
2021/12/09 12:51:09;;;;;;;30.98;12.63;;;;;;;;;;5103959;28;20059;-61
2021/12/09 12:53:41;;;;;;;31.70;13.80;;;;;;;;;;5103958;28;20048;-61
2021/12/09 12:56:27;;;;;;;27.80;14.55;;;;;;;;;;5086792;28;20048;-61
2021/12/09 12:59:06;;;;;;;28.15;13.65;;;;;;;;;;5102228;28;20067;-60
2021/12/09 13:01:33;;;;;;;21.00;12.27;;;;;;;;;;5104375;28;20048;-61
2021/12/09 13:04:11;;;;;;;25.73;12.95;;;;;;;;;;5103956;28;20097;-60
2021/12/09 13:06:51;;;;;;;24.70;13.27;;;;;;;;;;5072500;28;20079;-61
2021/12/09 13:09:30;;;;;;;28.42;14.75;;;;;;;;;;5066215;28;20060;-61
2021/12/09 13:12:05;;;;;;;26.17;13.73;;;;;;;;;;5084275;28;20052;-62
2021/12/09 13:14:34;;;;;;;29.27;14.02;;;;;;;;;;5102795;28;20106;-61
2021/12/09 13:17:16;;;;;;;28.85;13.63;;;;;;;;;;5084406;28;20047;-61
2021/12/09 13:19:57;;;;;;;34.15;13.90;;;;;;;;;;5084317;28;20052;-61
2021/12/09 13:22:34;;;;;;;24.02;14.73;;;;;;;;;;5087545;28;20066;-61
2021/12/09 13:25:16;;;;;;;24.23;13.18;;;;;;;;;;5103328;28;20051;-61
2021/12/09 13:27:56;;;;;;;28.45;14.77;;;;;;;;;;5104385;28;20133;-61
2021/12/09 13:30:35;;;;;;;30.85;14.50;;;;;;;;;;5104582;28;20044;-61
2021/12/09 13:46:36;;;;;;;24.15;14.35;;;;;;;;;;5065634;28;20070;-61
2021/12/09 13:49:18;;;;;;;33.58;15.52;;;;;;;;;;5084015;28;20048;-61
2021/12/09 13:54:27;;;;;;;30.60;14.80;;;;;;;;;;5074545;28;20500;-61
2021/12/09 13:56:57;;;;;;;27.58;15.38;;;;;;;;;;5083510;28;20044;-61
2021/12/09 13:59:24;;;;;;;22.38;14.45;;;;;;;;;;5083745;28;20634;-61
2021/12/09 14:01:52;;;;;;;29.17;16.25;;;;;;;;;;5086248;28;20055;-61
2021/12/09 14:04:21;;;;;;;29.00;16.17;;;;;;;;;;5108761;28;20070;-61
2021/12/09 14:07:09;;;;;;;33.60;16.05;;;;;;;;;;5106913;28;20146;-60
2021/12/09 14:09:37;;;;;;;40.42;16.02;;;;;;;;;;5100688;28;20099;-62
2021/12/09 14:12:04;;;;;;;37.88;15.85;;;;;;;;;;5087789;28;20057;-61
2021/12/09 14:14:49;;;;;;;36.15;15.55;;;;;;;;;;5076436;28;20048;-62
2021/12/09 14:17:21;;;;;;;28.70;16.50;;;;;;;;;;5069309;28;20080;-60
2021/12/09 14:20:03;;;;;;;29.00;15.68;;;;;;;;;;5087297;28;20096;-62
2021/12/09 14:22:31;;;;;;;32.22;14.07;;;;;;;;;;5088097;28;20079;-62
2021/12/09 14:25:00;;;;;;;32.78;16.63;;;;;;;;;;5095760;28;20036;-61
2021/12/09 14:27:27;;;;;;;35.55;15.52;;;;;;;;;;5086473;28;20112;-62
2021/12/09 14:29:54;;;;;;;32.67;17.35;;;;;;;;;;5107837;28;20061;-61
2021/12/09 14:32:22;;;;;;;35.42;15.73;;;;;;;;;;5107868;28;20099;-61
2021/12/09 14:34:53;;;;;;;36.13;16.85;;;;;;;;;;5097219;28;20055;-61
2021/12/09 14:37:20;;;;;;;32.13;16.00;;;;;;;;;;5068860;28;20107;-62
2021/12/09 14:39:47;;;;;;;30.40;16.63;;;;;;;;;;5107596;28;20056;-61
2021/12/09 14:42:15;;;;;;;33.53;15.57;;;;;;;;;;5106909;28;20295;-61
2021/12/09 14:44:52;;;;;;;33.50;16.65;;;;;;;;;;5083907;28;20132;-60
2021/12/09 14:47:55;;;;;;;36.80;17.98;;;;;;;;;;5161770;27;1269408;-62
2021/12/09 14:50:30;;;;;;;32.90;16.95;;;;;;;;;;5181516;27;20054;-63
2021/12/09 14:52:56;;;;;;;28.88;17.17;;;;;;;;;;5148401;27;20067;-62
2021/12/09 14:55:25;;;;;;;35.72;17.17;;;;;;;;;;5177850;27;20134;-62
2021/12/09 14:57:53;;;;;;;40.50;17.35;;;;;;;;;;5163550;27;20072;-62
2021/12/09 15:00:54;;;;;;;37.92;16.80;;;;;;;;;;5178170;27;20451;-63
2021/12/09 15:04:00;;;;;;;35.38;17.35;;;;;;;;;;5025991;28;20060;-63
2021/12/09 15:06:31;;;;;;;35.83;17.27;;;;;;;;;;5052884;28;20052;-62
2021/12/09 15:09:08;;;;;;;35.22;18.27;;;;;;;;;;5072518;28;20040;-62
2021/12/09 15:11:38;;;;;;;25.02;15.00;;;;;;;;;;5068908;28;20055;-62
2021/12/09 15:14:10;;;;;;;28.30;13.25;;;;;;;;;;5077952;28;20118;-62
2021/12/09 15:16:37;;;;;;;32.17;15.90;;;;;;;;;;5077184;28;20036;-61
2021/12/09 15:19:14;;;;;;;35.33;18.35;;;;;;;;;;5061826;28;20063;-62